createdAt,value
2022-09-28T00:00:08.565Z,48.25
2022-09-28T00:01:08.565Z,54.52
2022-09-28T00:02:08.633Z,50.40
2022-09-28T00:03:08.594Z,47.30
2022-09-28T00:04:08.522Z,49.18
2022-09-28T00:05:08.512Z,52.58
2022-09-28T00:06:08.502Z,44.22
2022-09-28T00:07:08.505Z,53.24
2022-09-28T00:08:08.477Z,49.23
2022-09-28T00:09:09.496Z,47.05
2022-09-28T00:10:08.467Z,51.23
2022-09-28T00:11:08.452Z,50.42
2022-09-28T00:12:08.460Z,49.37
2022-09-28T00:13:08.430Z,49.77
2022-09-28T00:14:09.429Z,50.28
2022-09-28T00:15:08.421Z,51.84
2022-09-28T00:16:08.431Z,47.69
2022-09-28T00:17:08.410Z,48.21
2022-09-28T00:18:08.404Z,52.56
2022-09-28T00:19:08.390Z,52.40
2022-09-28T00:20:08.374Z,48.11
2022-09-28T00:21:08.372Z,48.82
2022-09-28T00:22:08.367Z,52.13
2022-09-28T00:23:08.348Z,53.02
2022-09-28T00:24:08.338Z,53.54
2022-09-28T00:25:08.329Z,50.63
2022-09-28T00:26:08.315Z,42.79
2022-09-28T00:27:08.316Z,49.37
2022-09-28T00:28:08.297Z,47.71
2022-09-28T00:29:08.289Z,49.36
2022-09-28T00:30:08.278Z,51.65
2022-09-28T00:31:08.280Z,49.96
2022-09-28T00:32:08.276Z,46.84
2022-09-28T00:33:08.246Z,48.99
2022-09-28T00:34:08.295Z,45.62
2022-09-28T00:35:08.225Z,51.08
2022-09-28T00:36:08.222Z,51.60
2022-09-28T00:37:08.224Z,50.63
2022-09-28T00:38:08.200Z,50.09
2022-09-28T00:39:08.189Z,48.54
2022-09-28T00:40:08.181Z,44.90
2022-09-28T00:41:08.173Z,54.45
2022-09-28T00:42:08.171Z,50.15
2022-09-28T00:43:08.151Z,48.62
2022-09-28T00:44:08.143Z,49.86
2022-09-28T00:45:08.134Z,51.34
2022-09-28T00:46:08.182Z,51.82
2022-09-28T00:47:08.120Z,51.20
2022-09-28T00:48:08.099Z,48.91
2022-09-28T00:49:08.092Z,48.51
2022-09-28T00:50:08.085Z,49.80
2022-09-28T00:51:08.073Z,48.72
2022-09-28T00:52:08.069Z,49.98
2022-09-28T00:53:08.056Z,48.88
2022-09-28T00:54:08.037Z,48.91
2022-09-28T00:55:08.036Z,47.40
2022-09-28T00:56:08.021Z,50.13
2022-09-28T00:57:08.024Z,47.08
2022-09-28T00:58:08.007Z,50.36
2022-09-28T00:59:07.999Z,49.65
2022-09-28T01:00:07.989Z,45.34
2022-09-28T01:01:08.007Z,49.20
2022-09-28T01:02:08.007Z,47.70
2022-09-28T01:03:07.982Z,49.28
2022-09-28T01:04:07.951Z,49.52
2022-09-28T01:05:07.940Z,49.82
2022-09-28T01:06:07.923Z,49.35
2022-09-28T01:07:07.931Z,49.35
2022-09-28T01:08:07.913Z,50.91
2022-09-28T01:09:07.898Z,52.16
2022-09-28T01:10:07.889Z,51.29
2022-09-28T01:11:07.884Z,52.60
2022-09-28T01:12:07.884Z,45.38
2022-09-28T01:13:07.862Z,52.02
2022-09-28T01:14:07.854Z,52.85
2022-09-28T01:15:07.846Z,49.57
2022-09-28T01:16:07.871Z,51.37
2022-09-28T01:17:07.843Z,41.77
2022-09-28T01:18:07.820Z,49.35
2022-09-28T01:19:07.846Z,50.01
2022-09-28T01:20:07.822Z,50.22
2022-09-28T01:21:07.802Z,50.95
2022-09-28T01:22:07.798Z,51.46
2022-09-28T01:23:07.778Z,47.51
2022-09-28T01:24:07.764Z,49.79
2022-09-28T01:25:07.754Z,49.81
2022-09-28T01:26:07.746Z,48.37
2022-09-28T01:27:07.750Z,48.89
2022-09-28T01:28:07.779Z,50.45
2022-09-28T01:29:07.717Z,47.95
2022-09-28T01:30:07.709Z,46.45
2022-09-28T01:31:07.793Z,48.49
2022-09-28T01:32:07.695Z,49.53
2022-09-28T01:33:07.675Z,48.58
2022-09-28T01:34:07.666Z,49.12
2022-09-28T01:35:07.657Z,49.89
2022-09-28T01:36:07.651Z,46.87
2022-09-28T01:37:07.654Z,51.40
2022-09-28T01:38:07.631Z,48.32
2022-09-28T01:39:07.629Z,49.87
2022-09-28T01:40:07.614Z,48.55
2022-09-28T01:41:07.606Z,48.49
2022-09-28T01:42:07.601Z,48.28
2022-09-28T01:43:07.590Z,48.20
2022-09-28T01:44:07.573Z,50.04
2022-09-28T01:45:07.564Z,48.58
2022-09-28T01:46:07.579Z,46.95
2022-09-28T01:47:07.557Z,49.74
2022-09-28T01:48:07.541Z,47.87
2022-09-28T01:49:07.533Z,50.01
2022-09-28T01:50:07.521Z,48.33
2022-09-28T01:51:07.514Z,50.91
2022-09-28T01:52:07.512Z,46.42
2022-09-28T01:53:07.491Z,45.88
2022-09-28T01:54:07.482Z,50.05
2022-09-28T01:55:07.473Z,47.84
2022-09-28T01:56:07.463Z,51.86
2022-09-28T01:57:07.461Z,49.74
2022-09-28T01:58:07.448Z,49.46
2022-09-28T01:59:07.441Z,49.22
2022-09-28T02:00:07.429Z,49.18
2022-09-28T02:01:07.460Z,46.87
2022-09-28T02:02:07.485Z,49.15
2022-09-28T02:03:07.404Z,45.14
2022-09-28T02:04:07.392Z,48.04
2022-09-28T02:05:07.387Z,51.55
2022-09-28T02:06:07.377Z,47.97
2022-09-28T02:07:07.378Z,47.98
2022-09-28T02:08:07.353Z,48.66
2022-09-28T02:09:07.346Z,46.03
2022-09-28T02:10:07.337Z,48.05
2022-09-28T02:11:07.325Z,48.95
2022-09-28T02:12:07.357Z,48.24
2022-09-28T02:13:07.309Z,50.41
2022-09-28T02:14:07.298Z,49.63
2022-09-28T02:15:07.292Z,49.03
2022-09-28T02:16:07.377Z,49.77
2022-09-28T02:17:07.294Z,51.71
2022-09-28T02:18:07.264Z,50.22
2022-09-28T02:19:07.256Z,49.88
2022-09-28T02:20:07.250Z,47.66
2022-09-28T02:21:07.237Z,48.90
2022-09-28T02:22:07.234Z,48.94
2022-09-28T02:23:07.222Z,48.24
2022-09-28T02:24:07.208Z,47.91
2022-09-28T02:25:07.201Z,49.46
2022-09-28T02:26:07.188Z,51.37
2022-09-28T02:27:07.197Z,51.39
2022-09-28T02:28:07.170Z,52.07
2022-09-28T02:29:07.168Z,49.99
2022-09-28T02:30:07.156Z,51.39
2022-09-28T02:31:07.220Z,49.26
2022-09-28T02:32:07.147Z,51.05
2022-09-28T02:33:07.122Z,51.89
2022-09-28T02:34:07.121Z,50.64
2022-09-28T02:35:07.106Z,51.70
2022-09-28T02:36:07.096Z,53.10
2022-09-28T02:37:07.095Z,52.99
2022-09-28T02:38:07.073Z,51.93
2022-09-28T02:39:07.068Z,52.58
2022-09-28T02:40:07.054Z,53.46
2022-09-28T02:41:07.053Z,51.68
2022-09-28T02:42:07.053Z,50.02
2022-09-28T02:43:07.027Z,50.47
2022-09-28T02:44:07.019Z,52.39
2022-09-28T02:45:07.001Z,50.65
2022-09-28T02:46:08.103Z,49.71
2022-09-28T02:47:07.003Z,52.26
2022-09-28T02:48:06.982Z,53.84
2022-09-28T02:49:20.791Z,53.42
2022-09-28T02:50:08.969Z,51.27
2022-09-28T02:51:06.957Z,52.53
2022-09-28T02:52:06.954Z,53.58
2022-09-28T02:53:06.938Z,52.55
2022-09-28T02:54:06.925Z,51.32
2022-09-28T02:55:06.918Z,50.58
2022-09-28T02:56:06.907Z,48.42
2022-09-28T02:57:06.913Z,50.52
2022-09-28T02:58:06.898Z,51.73
2022-09-28T02:59:06.887Z,52.75
2022-09-28T03:00:06.878Z,50.53
2022-09-28T03:01:06.917Z,50.38
2022-09-28T03:02:06.982Z,54.07
2022-09-28T03:03:06.844Z,53.81
2022-09-28T03:04:06.836Z,51.25
2022-09-28T03:05:06.826Z,54.98
2022-09-28T03:06:06.817Z,52.25
2022-09-28T03:07:06.815Z,53.18
2022-09-28T03:08:06.800Z,47.78
2022-09-28T03:09:06.793Z,53.99
2022-09-28T03:10:06.777Z,54.81
2022-09-28T03:11:06.766Z,54.54
2022-09-28T03:12:06.778Z,52.58
2022-09-28T03:13:06.747Z,52.91
2022-09-28T03:14:06.738Z,53.20
2022-09-28T03:15:06.730Z,51.65
2022-09-28T03:16:06.761Z,50.15
2022-09-28T03:17:06.717Z,52.32
2022-09-28T03:18:06.704Z,54.30
2022-09-28T03:19:06.689Z,54.30
2022-09-28T03:20:06.681Z,52.07
2022-09-28T03:21:06.672Z,54.32
2022-09-28T03:22:06.672Z,54.31
2022-09-28T03:23:23.984Z,52.40
2022-09-28T03:24:08.642Z,49.90
2022-09-28T03:25:06.631Z,50.02
2022-09-28T03:26:06.648Z,51.95
2022-09-28T03:27:06.627Z,48.70
2022-09-28T03:28:06.596Z,51.49
2022-09-28T03:29:06.602Z,51.07
2022-09-28T03:30:06.581Z,51.89
2022-09-28T03:31:06.605Z,51.34
2022-09-28T03:32:06.578Z,50.65
2022-09-28T03:33:06.549Z,52.66
2022-09-28T03:34:06.546Z,52.87
2022-09-28T03:35:06.538Z,50.52
2022-09-28T03:36:06.520Z,51.12
2022-09-28T03:37:06.524Z,53.10
2022-09-28T03:38:06.502Z,51.07
2022-09-28T03:39:06.495Z,53.56
2022-09-28T03:40:06.487Z,50.74
2022-09-28T03:41:06.475Z,51.98
2022-09-28T03:42:06.471Z,51.08
2022-09-28T03:43:06.451Z,54.17
2022-09-28T03:44:06.442Z,53.10
2022-09-28T03:45:06.438Z,53.14
2022-09-28T03:46:06.448Z,52.07
2022-09-28T03:47:06.437Z,53.76
2022-09-28T03:48:06.408Z,51.33
2022-09-28T03:49:06.396Z,52.38
2022-09-28T03:50:06.388Z,50.07
2022-09-28T03:51:06.382Z,50.93
2022-09-28T03:52:06.385Z,53.13
2022-09-28T03:53:06.358Z,53.35
2022-09-28T03:54:06.354Z,52.88
2022-09-28T03:55:06.347Z,53.29
2022-09-28T03:56:06.335Z,50.89
2022-09-28T03:57:06.332Z,51.66
2022-09-28T03:58:06.314Z,53.06
2022-09-28T03:59:06.307Z,52.30
2022-09-28T04:00:06.294Z,52.46
2022-09-28T04:01:06.420Z,51.61
2022-09-28T04:02:06.311Z,53.71
2022-09-28T04:03:06.279Z,53.42
2022-09-28T04:04:06.256Z,54.08
2022-09-28T04:05:06.268Z,50.97
2022-09-28T04:06:06.237Z,52.74
2022-09-28T04:07:06.237Z,55.10
2022-09-28T04:08:06.219Z,54.41
2022-09-28T04:09:06.214Z,56.06
2022-09-28T04:10:06.197Z,54.03
2022-09-28T04:11:06.189Z,55.52
2022-09-28T04:12:06.177Z,54.23
2022-09-28T04:13:06.178Z,53.67
2022-09-28T04:14:06.153Z,55.37
2022-09-28T04:15:06.151Z,52.85
2022-09-28T04:16:06.195Z,53.72
2022-09-28T04:17:06.136Z,53.83
2022-09-28T04:18:06.132Z,55.93
2022-09-28T04:19:06.112Z,55.42
2022-09-28T04:20:06.103Z,53.81
2022-09-28T04:21:06.094Z,54.91
2022-09-28T04:22:06.085Z,56.32
2022-09-28T04:23:06.091Z,56.10
2022-09-28T04:24:06.072Z,53.41
2022-09-28T04:25:06.077Z,52.83
2022-09-28T04:26:06.051Z,55.14
2022-09-28T04:27:06.046Z,54.49
2022-09-28T04:28:06.047Z,54.77
2022-09-28T04:29:06.919Z,54.97
2022-09-28T04:30:07.016Z,54.46
2022-09-28T04:31:06.009Z,56.06
2022-09-28T04:32:06.066Z,55.27
2022-09-28T04:33:05.993Z,54.23
2022-09-28T04:34:05.978Z,53.27
2022-09-28T04:35:05.970Z,53.25
2022-09-28T04:36:05.961Z,54.42
2022-09-28T04:37:05.952Z,55.36
2022-09-28T04:38:05.953Z,54.68
2022-09-28T04:39:05.932Z,55.57
2022-09-28T04:40:05.938Z,55.75
2022-09-28T04:41:05.916Z,54.62
2022-09-28T04:42:05.910Z,54.90
2022-09-28T04:43:05.911Z,53.83
2022-09-28T04:44:05.893Z,55.17
2022-09-28T04:45:05.896Z,55.09
2022-09-28T04:46:05.928Z,56.22
2022-09-28T04:47:05.864Z,54.99
2022-09-28T04:48:05.867Z,55.83
2022-09-28T04:49:05.846Z,54.04
2022-09-28T04:50:05.839Z,51.84
2022-09-28T04:51:05.835Z,54.69
2022-09-28T04:52:05.835Z,54.94
2022-09-28T04:53:05.817Z,55.25
2022-09-28T04:54:05.804Z,56.74
2022-09-28T04:55:05.794Z,55.05
2022-09-28T04:56:05.785Z,56.73
2022-09-28T04:57:05.778Z,56.20
2022-09-28T04:58:05.777Z,55.48
2022-09-28T04:59:05.760Z,55.21
2022-09-28T05:00:05.747Z,55.13
2022-09-28T05:01:05.804Z,54.43
2022-09-28T05:02:05.765Z,54.02
2022-09-28T05:03:05.746Z,53.67
2022-09-28T05:04:05.718Z,53.45
2022-09-28T05:05:05.707Z,55.27
2022-09-28T05:06:05.694Z,54.92
2022-09-28T05:07:05.691Z,54.66
2022-09-28T05:08:05.692Z,53.73
2022-09-28T05:09:05.669Z,52.11
2022-09-28T05:10:05.672Z,51.13
2022-09-28T05:11:05.654Z,55.23
2022-09-28T05:12:05.639Z,56.48
2022-09-28T05:13:05.637Z,54.18
2022-09-28T05:14:05.618Z,54.78
2022-09-28T05:15:05.608Z,55.29
2022-09-28T05:16:05.830Z,55.47
2022-09-28T05:17:06.594Z,55.51
2022-09-28T05:18:05.590Z,53.65
2022-09-28T05:19:05.574Z,53.88
2022-09-28T05:20:05.579Z,54.77
2022-09-28T05:21:05.553Z,53.72
2022-09-28T05:22:05.554Z,55.41
2022-09-28T05:23:05.551Z,55.71
2022-09-28T05:24:05.530Z,55.52
2022-09-28T05:25:05.519Z,55.86
2022-09-28T05:26:05.514Z,50.88
2022-09-28T05:27:05.505Z,53.06
2022-09-28T05:28:05.508Z,54.36
2022-09-28T05:29:05.491Z,54.90
2022-09-28T05:30:05.481Z,53.96
2022-09-28T05:31:06.484Z,55.21
2022-09-28T05:32:05.515Z,54.58
2022-09-28T05:33:05.457Z,54.52
2022-09-28T05:34:05.439Z,53.41
2022-09-28T05:35:05.433Z,55.38
2022-09-28T05:36:05.424Z,55.13
2022-09-28T05:37:05.412Z,53.38
2022-09-28T05:38:05.411Z,55.30
2022-09-28T05:39:05.390Z,54.75
2022-09-28T05:40:05.385Z,55.32
2022-09-28T05:41:06.672Z,55.65
2022-09-28T05:42:06.363Z,55.99
2022-09-28T05:43:05.364Z,55.07
2022-09-28T05:44:05.347Z,54.72
2022-09-28T05:45:05.337Z,56.74
2022-09-28T05:46:05.372Z,55.50
2022-09-28T05:47:05.311Z,55.36
2022-09-28T05:48:05.319Z,55.80
2022-09-28T05:49:05.301Z,53.42
2022-09-28T05:50:05.289Z,55.42
2022-09-28T05:51:05.274Z,53.96
2022-09-28T05:52:05.272Z,55.31
2022-09-28T05:53:05.272Z,53.11
2022-09-28T05:54:06.323Z,51.33
2022-09-28T05:55:06.241Z,52.72
2022-09-28T05:56:05.231Z,56.25
2022-09-28T05:57:05.223Z,53.20
2022-09-28T05:58:05.221Z,51.89
2022-09-28T05:59:05.203Z,54.15
2022-09-28T06:00:05.194Z,56.29
2022-09-28T06:01:05.223Z,52.87
2022-09-28T06:02:05.217Z,53.55
2022-09-28T06:03:08.655Z,54.46
2022-09-28T06:04:06.150Z,54.76
2022-09-28T06:05:05.143Z,55.38
2022-09-28T06:06:05.130Z,56.77
2022-09-28T06:07:05.121Z,56.51
2022-09-28T06:08:05.225Z,52.81
2022-09-28T06:09:05.108Z,56.05
2022-09-28T06:10:05.096Z,54.31
2022-09-28T06:11:05.086Z,55.86
2022-09-28T06:12:05.084Z,55.38
2022-09-28T06:13:05.075Z,53.27
2022-09-28T06:14:05.056Z,56.55
2022-09-28T06:15:05.051Z,53.81
2022-09-28T06:16:05.044Z,55.32
2022-09-28T06:17:05.063Z,52.74
2022-09-28T06:18:05.037Z,54.48
2022-09-28T06:19:05.016Z,55.30
2022-09-28T06:20:05.002Z,53.19
2022-09-28T06:21:04.997Z,54.45
2022-09-28T06:22:04.987Z,55.72
2022-09-28T06:23:05.025Z,55.04
2022-09-28T06:24:04.991Z,51.63
2022-09-28T06:25:04.956Z,53.28
2022-09-28T06:26:04.946Z,53.60
2022-09-28T06:27:04.938Z,52.34
2022-09-28T06:28:04.938Z,55.60
2022-09-28T06:29:04.917Z,53.66
2022-09-28T06:30:04.911Z,50.77
2022-09-28T06:31:05.029Z,54.22
2022-09-28T06:32:04.926Z,52.44
2022-09-28T06:33:04.891Z,53.30
2022-09-28T06:34:05.874Z,53.96
2022-09-28T06:35:04.902Z,53.65
2022-09-28T06:36:04.853Z,54.15
2022-09-28T06:37:04.844Z,53.33
2022-09-28T06:38:04.843Z,53.79
2022-09-28T06:39:04.823Z,54.34
2022-09-28T06:40:04.812Z,52.79
2022-09-28T06:41:04.848Z,54.04
2022-09-28T06:42:04.794Z,51.62
2022-09-28T06:43:04.791Z,51.53
2022-09-28T06:44:04.787Z,52.49
2022-09-28T06:45:04.779Z,51.70
2022-09-28T06:46:04.839Z,51.83
2022-09-28T06:47:04.752Z,49.91
2022-09-28T06:48:04.757Z,52.82
2022-09-28T06:49:04.735Z,51.44
2022-09-28T06:50:04.739Z,53.08
2022-09-28T06:51:04.716Z,52.23
2022-09-28T06:52:04.707Z,51.64
2022-09-28T06:53:04.699Z,48.79
2022-09-28T06:54:04.700Z,49.06
2022-09-28T06:55:04.707Z,52.87
2022-09-28T06:56:04.674Z,52.30
2022-09-28T06:57:04.660Z,50.79
2022-09-28T06:58:04.665Z,51.64
2022-09-28T06:59:04.644Z,50.92
2022-09-28T07:00:04.642Z,50.96
2022-09-28T07:01:04.647Z,50.24
2022-09-28T07:02:04.649Z,51.30
2022-09-28T07:03:04.621Z,50.43
2022-09-28T07:04:04.610Z,50.71
2022-09-28T07:05:04.594Z,50.82
2022-09-28T07:06:04.582Z,48.48
2022-09-28T07:07:04.577Z,48.74
2022-09-28T07:08:04.575Z,50.89
2022-09-28T07:09:18.651Z,50.46
2022-09-28T07:10:06.567Z,50.21
2022-09-28T07:11:04.540Z,50.14
2022-09-28T07:12:04.535Z,49.72
2022-09-28T07:13:04.631Z,50.72
2022-09-28T07:14:04.527Z,50.27
2022-09-28T07:15:04.505Z,50.61
2022-09-28T07:16:04.500Z,52.64
2022-09-28T07:17:14.177Z,52.33
2022-09-28T07:18:06.517Z,50.14
2022-09-28T07:19:04.469Z,47.24
2022-09-28T07:20:16.007Z,49.07
2022-09-28T07:21:06.457Z,50.93
2022-09-28T07:22:05.675Z,46.76
2022-09-28T07:23:17.068Z,53.19
2022-09-28T07:24:06.422Z,50.60
2022-09-28T07:25:04.411Z,51.26
2022-09-28T07:26:06.720Z,50.76
2022-09-28T07:27:04.388Z,49.75
2022-09-28T07:28:05.396Z,48.56
2022-09-28T07:29:05.372Z,49.57
2022-09-28T07:30:04.365Z,51.98
2022-09-28T07:31:04.411Z,52.69
2022-09-28T07:32:04.348Z,51.61
2022-09-28T07:33:04.348Z,47.58
2022-09-28T07:34:04.364Z,50.18
2022-09-28T07:35:04.317Z,51.06
2022-09-28T07:36:04.308Z,49.22
2022-09-28T07:37:04.303Z,49.18
2022-09-28T07:38:04.295Z,47.14
2022-09-28T07:39:04.295Z,50.16
2022-09-28T07:40:04.283Z,48.73
2022-09-28T07:41:04.340Z,49.45
2022-09-28T07:42:04.259Z,50.42
2022-09-28T07:43:04.272Z,48.59
2022-09-28T07:44:04.250Z,49.54
2022-09-28T07:45:04.229Z,49.61
2022-09-28T07:46:04.254Z,46.22
2022-09-28T07:47:04.210Z,49.76
2022-09-28T07:48:04.262Z,51.97
2022-09-28T07:49:07.012Z,50.55
2022-09-28T07:50:05.183Z,52.24
2022-09-28T07:51:04.171Z,47.62
2022-09-28T07:52:04.160Z,49.15
2022-09-28T07:53:04.151Z,51.94
2022-09-28T07:54:04.153Z,49.04
2022-09-28T07:55:07.003Z,49.71
2022-09-28T07:56:05.125Z,53.35
2022-09-28T07:57:04.114Z,52.39
2022-09-28T07:58:04.108Z,50.29
2022-09-28T07:59:04.109Z,51.21
2022-09-28T08:00:04.108Z,48.97
2022-09-28T08:01:04.169Z,49.27
2022-09-28T08:02:04.152Z,49.24
2022-09-28T08:03:04.058Z,45.48
2022-09-28T08:04:04.060Z,48.37
2022-09-28T08:05:04.038Z,50.52
2022-09-28T08:06:04.025Z,49.33
2022-09-28T08:07:04.013Z,49.38
2022-09-28T08:08:05.006Z,51.44
2022-09-28T08:09:04.008Z,48.11
2022-09-28T08:10:03.985Z,49.30
2022-09-28T08:11:03.981Z,50.52
2022-09-28T08:12:03.973Z,49.56
2022-09-28T08:13:06.381Z,50.65
2022-09-28T08:14:03.972Z,49.55
2022-09-28T08:15:03.940Z,51.43
2022-09-28T08:16:03.949Z,49.63
2022-09-28T08:17:03.930Z,50.46
2022-09-28T08:18:03.912Z,51.65
2022-09-28T08:19:03.915Z,54.33
2022-09-28T08:20:03.939Z,50.90
2022-09-28T08:21:03.887Z,51.39
2022-09-28T08:22:03.875Z,51.30
2022-09-28T08:23:03.865Z,52.64
2022-09-28T08:24:03.866Z,53.00
2022-09-28T08:25:03.847Z,52.66
2022-09-28T08:26:03.836Z,53.87
2022-09-28T08:27:03.827Z,49.99
2022-09-28T08:28:03.810Z,50.15
2022-09-28T08:29:04.325Z,49.99
2022-09-28T08:30:03.803Z,52.51
2022-09-28T08:31:03.863Z,51.25
2022-09-28T08:32:03.770Z,48.79
2022-09-28T08:33:03.761Z,51.48
2022-09-28T08:34:03.762Z,50.77
2022-09-28T08:35:03.746Z,48.78
2022-09-28T08:36:03.734Z,50.27
2022-09-28T08:37:03.724Z,50.35
2022-09-28T08:38:03.711Z,51.45
2022-09-28T08:39:03.710Z,53.95
2022-09-28T08:40:03.695Z,54.28
2022-09-28T08:41:03.800Z,53.71
2022-09-28T08:42:03.666Z,52.61
2022-09-28T08:43:03.661Z,53.12
2022-09-28T08:44:03.660Z,53.90
2022-09-28T08:45:03.659Z,55.38
2022-09-28T08:46:03.712Z,53.48
2022-09-28T08:47:03.617Z,49.65
2022-09-28T08:48:03.614Z,52.92
2022-09-28T08:50:05.598Z,52.63
2022-09-28T08:51:03.582Z,50.72
2022-09-28T08:52:03.569Z,51.40
2022-09-28T08:53:03.563Z,52.45
2022-09-28T08:54:05.806Z,48.29
2022-09-28T08:55:03.563Z,50.62
2022-09-28T08:56:03.536Z,51.74
2022-09-28T08:57:03.530Z,50.99
2022-09-28T08:58:03.507Z,49.52
2022-09-28T08:59:03.510Z,51.08
2022-09-28T09:00:04.709Z,51.80
2022-09-28T09:01:03.538Z,52.14
2022-09-28T09:02:03.633Z,52.71
2022-09-28T09:03:03.463Z,49.97
2022-09-28T09:04:03.498Z,51.58
2022-09-28T09:05:03.442Z,52.12
2022-09-28T09:06:03.429Z,53.69
2022-09-28T09:07:03.425Z,49.83
2022-09-28T09:08:03.413Z,51.00
2022-09-28T09:09:03.414Z,51.39
2022-09-28T09:10:03.394Z,53.06
2022-09-28T09:11:03.393Z,50.96
2022-09-28T09:12:03.375Z,52.06
2022-09-28T09:13:03.363Z,52.46
2022-09-28T09:14:03.400Z,51.96
2022-09-28T09:15:03.358Z,52.82
2022-09-28T09:16:03.329Z,55.22
2022-09-28T09:17:03.364Z,50.69
2022-09-28T09:18:03.312Z,53.82
2022-09-28T09:19:03.317Z,54.40
2022-09-28T09:20:03.301Z,53.85
2022-09-28T09:21:03.293Z,54.77
2022-09-28T09:22:03.268Z,54.96
2022-09-28T09:23:03.260Z,53.53
2022-09-28T09:24:03.267Z,51.68
2022-09-28T09:25:03.235Z,56.00
2022-09-28T09:26:03.229Z,57.12
2022-09-28T09:27:03.217Z,53.04
2022-09-28T09:28:03.211Z,50.60
2022-09-28T09:29:03.204Z,53.00
2022-09-28T09:30:03.183Z,54.83
2022-09-28T09:31:03.203Z,54.05
2022-09-28T09:32:03.181Z,52.53
2022-09-28T09:33:03.156Z,54.68
2022-09-28T09:34:03.154Z,49.97
2022-09-28T09:35:03.133Z,52.52
2022-09-28T09:36:03.132Z,54.30
2022-09-28T09:37:03.114Z,54.62
2022-09-28T09:38:03.104Z,53.47
2022-09-28T09:39:03.103Z,51.99
2022-09-28T09:40:03.088Z,52.42
2022-09-28T09:41:03.181Z,54.24
2022-09-28T09:42:03.071Z,54.54
2022-09-28T09:43:03.058Z,53.03
2022-09-28T09:44:03.056Z,53.61
2022-09-28T09:45:03.036Z,54.95
2022-09-28T09:46:03.091Z,53.61
2022-09-28T09:47:03.019Z,53.74
2022-09-28T09:48:03.018Z,52.03
2022-09-28T09:49:03.009Z,51.96
2022-09-28T09:50:06.789Z,54.97
2022-09-28T09:51:04.977Z,55.63
2022-09-28T09:52:02.979Z,54.23
2022-09-28T09:53:02.964Z,55.92
2022-09-28T09:54:02.960Z,55.05
2022-09-28T09:55:02.942Z,55.27
2022-09-28T09:56:02.927Z,57.33
2022-09-28T09:57:02.944Z,56.54
2022-09-28T09:58:02.913Z,58.28
2022-09-28T09:59:02.908Z,56.99
2022-09-28T10:00:02.883Z,57.13
2022-09-28T10:01:02.920Z,57.26
2022-09-28T10:02:02.963Z,56.85
2022-09-28T10:03:02.852Z,57.85
2022-09-28T10:04:02.856Z,54.55
2022-09-28T10:05:02.834Z,57.07
2022-09-28T10:06:02.826Z,57.37
2022-09-28T10:07:02.817Z,55.23
2022-09-28T10:08:02.810Z,54.26
2022-09-28T10:09:02.812Z,56.20
2022-09-28T10:10:02.796Z,55.00
2022-09-28T10:11:02.774Z,55.34
2022-09-28T10:12:02.768Z,54.49
2022-09-28T10:13:02.765Z,56.41
2022-09-28T10:14:02.766Z,54.88
2022-09-28T10:15:02.740Z,57.12
2022-09-28T10:16:02.734Z,57.79
2022-09-28T10:17:02.879Z,56.59
2022-09-28T10:18:02.708Z,58.02
2022-09-28T10:19:02.718Z,54.88
2022-09-28T10:20:02.691Z,56.15
2022-09-28T10:21:02.676Z,52.65
2022-09-28T10:22:02.667Z,53.48
2022-09-28T10:23:02.657Z,56.14
2022-09-28T10:24:02.767Z,56.16
2022-09-28T10:25:02.638Z,56.68
2022-09-28T10:26:02.637Z,56.03
2022-09-28T10:27:02.622Z,55.90
2022-09-28T10:28:02.608Z,55.26
2022-09-28T10:29:02.608Z,57.17
2022-09-28T10:30:02.627Z,58.58
2022-09-28T10:31:02.707Z,55.15
2022-09-28T10:32:02.567Z,56.82
2022-09-28T10:33:02.554Z,56.82
2022-09-28T10:34:02.552Z,57.33
2022-09-28T10:35:02.529Z,55.90
2022-09-28T10:36:02.523Z,58.62
2022-09-28T10:37:02.511Z,56.95
2022-09-28T10:38:02.510Z,58.33
2022-09-28T10:39:02.508Z,59.16
2022-09-28T10:40:02.492Z,59.71
2022-09-28T10:41:02.527Z,58.22
2022-09-28T10:42:02.462Z,58.94
2022-09-28T10:43:02.453Z,60.47
2022-09-28T10:44:02.451Z,60.07
2022-09-28T10:45:02.434Z,59.53
2022-09-28T10:46:02.505Z,58.68
2022-09-28T10:47:02.417Z,58.62
2022-09-28T10:48:02.404Z,58.41
2022-09-28T10:49:02.413Z,57.89
2022-09-28T10:50:02.381Z,60.97
2022-09-28T10:51:02.378Z,58.49
2022-09-28T10:52:02.367Z,57.38
2022-09-28T10:53:02.354Z,58.65
2022-09-28T10:54:02.352Z,59.77
2022-09-28T10:55:02.334Z,57.82
2022-09-28T10:56:02.321Z,61.62
2022-09-28T10:57:02.354Z,60.21
2022-09-28T10:58:02.302Z,57.02
2022-09-28T10:59:02.308Z,57.39
2022-09-28T11:00:02.283Z,57.09
2022-09-28T11:01:02.330Z,58.24
2022-09-28T11:02:02.355Z,56.72
2022-09-28T11:03:02.264Z,58.25
2022-09-28T11:04:02.254Z,58.80
2022-09-28T11:05:02.232Z,58.99
2022-09-28T11:06:02.223Z,57.83
2022-09-28T11:07:02.335Z,56.68
2022-09-28T11:08:02.204Z,55.73
2022-09-28T11:09:02.204Z,57.55
2022-09-28T11:10:02.187Z,55.72
2022-09-28T11:11:02.187Z,55.47
2022-09-28T11:12:02.162Z,59.83
2022-09-28T11:13:02.151Z,59.14
2022-09-28T11:14:02.153Z,59.17
2022-09-28T11:15:02.153Z,59.38
2022-09-28T11:16:02.124Z,60.21
2022-09-28T11:17:02.153Z,60.37
2022-09-28T11:18:02.104Z,59.55
2022-09-28T11:19:02.107Z,59.53
2022-09-28T11:20:02.081Z,58.32
2022-09-28T11:21:02.093Z,57.03
2022-09-28T11:22:02.061Z,58.01
2022-09-28T11:23:02.051Z,58.15
2022-09-28T11:24:02.051Z,57.91
2022-09-28T11:25:02.043Z,59.00
2022-09-28T11:26:02.018Z,59.00
2022-09-28T11:27:02.014Z,54.34
2022-09-28T11:28:02.000Z,58.18
2022-09-28T11:29:01.984Z,57.23
2022-09-28T11:30:01.985Z,57.90
2022-09-28T11:31:02.035Z,55.40
2022-09-28T11:32:01.952Z,55.91
2022-09-28T11:33:01.975Z,58.42
2022-09-28T11:34:01.942Z,57.40
2022-09-28T11:35:01.925Z,58.93
2022-09-28T11:36:01.911Z,58.18
2022-09-28T11:37:02.080Z,57.60
2022-09-28T11:38:01.892Z,58.02
2022-09-28T11:39:01.885Z,60.48
2022-09-28T11:40:01.895Z,57.35
2022-09-28T11:41:01.899Z,60.26
2022-09-28T11:42:01.875Z,59.11
2022-09-28T11:43:01.917Z,56.08
2022-09-28T11:44:01.850Z,58.88
2022-09-28T11:45:01.866Z,57.35
2022-09-28T11:46:01.843Z,58.63
2022-09-28T11:47:01.803Z,59.63
2022-09-28T11:48:01.798Z,58.03
2022-09-28T11:49:01.791Z,60.10
2022-09-28T11:50:01.870Z,59.68
2022-09-28T11:51:01.766Z,59.91
2022-09-28T11:52:01.762Z,59.77
2022-09-28T11:53:01.753Z,59.95
2022-09-28T11:54:01.737Z,58.43
2022-09-28T11:55:01.737Z,58.99
2022-09-28T11:56:05.314Z,57.17
2022-09-28T11:57:03.711Z,59.19
2022-09-28T11:58:01.698Z,59.29
2022-09-28T11:59:01.689Z,58.81
2022-09-28T12:00:01.696Z,59.41
2022-09-28T12:01:01.675Z,60.04
2022-09-28T12:02:01.738Z,61.05
2022-09-28T12:03:01.739Z,61.05
2022-09-28T12:04:01.652Z,61.43
2022-09-28T12:05:01.640Z,59.29
2022-09-28T12:06:01.619Z,60.53
2022-09-28T12:07:01.615Z,61.01
2022-09-28T12:08:01.595Z,59.90
2022-09-28T12:09:01.592Z,60.44
2022-09-28T12:10:01.629Z,60.65
2022-09-28T12:11:01.566Z,60.46
2022-09-28T12:12:01.566Z,60.29
2022-09-28T12:13:01.549Z,60.51
2022-09-28T12:14:01.540Z,58.36
2022-09-28T12:15:01.542Z,58.26
2022-09-28T12:16:32.293Z,58.93
2022-09-28T12:17:07.355Z,60.08
2022-09-28T12:18:02.538Z,58.21
2022-09-28T12:19:01.698Z,60.39
2022-09-28T12:20:01.546Z,54.95
2022-09-28T12:21:05.101Z,56.10
2022-09-28T12:22:02.460Z,57.68
2022-09-28T12:23:01.460Z,57.41
2022-09-28T12:24:01.442Z,59.99
2022-09-28T12:25:01.440Z,58.35
2022-09-28T12:26:01.418Z,61.22
2022-09-28T12:27:01.414Z,60.39
2022-09-28T12:28:01.407Z,62.28
2022-09-28T12:29:01.396Z,62.11
2022-09-28T12:30:01.388Z,61.75
2022-09-28T12:31:01.394Z,61.69
2022-09-28T12:32:01.357Z,62.26
2022-09-28T12:33:01.344Z,63.09
2022-09-28T12:34:01.342Z,61.09
2022-09-28T12:35:01.339Z,61.87
2022-09-28T12:36:01.326Z,60.06
2022-09-28T12:37:01.303Z,61.84
2022-09-28T12:38:01.294Z,62.77
2022-09-28T12:40:03.657Z,61.91
2022-09-28T12:41:01.354Z,61.84
2022-09-28T12:42:01.252Z,61.99
2022-09-28T12:43:01.237Z,61.91
2022-09-28T12:44:01.236Z,63.08
2022-09-28T12:45:01.227Z,62.25
2022-09-28T12:46:13.100Z,61.56
2022-09-28T12:47:03.248Z,63.39
2022-09-28T12:48:01.190Z,61.98
2022-09-28T12:51:03.239Z,60.09
2022-09-28T12:52:01.151Z,61.26
2022-09-28T12:53:03.090Z,60.64
2022-09-28T12:54:01.144Z,62.61
2022-09-28T12:55:01.229Z,61.70
2022-09-28T12:56:01.116Z,60.36